sensor_id;sensor_type;location;lat;lon;timestamp;P1;durP1;ratioP1;P2;durP2;ratioP2
41719;SDS011;27405;53.316;-6.294;2022-11-20T00:00:46;27.25;;;5.35;;
41719;SDS011;27405;53.316;-6.294;2022-11-20T00:03:12;29.63;;;5.20;;
41719;SDS011;27405;53.316;-6.294;2022-11-20T00:05:38;26.00;;;4.13;;
41719;SDS011;27405;53.316;-6.294;2022-11-20T00:08:04;22.23;;;3.67;;
41719;SDS011;27405;53.316;-6.294;2022-11-20T00:10:30;26.70;;;5.15;;
41719;SDS011;27405;53.316;-6.294;2022-11-20T00:12:57;22.00;;;4.35;;
41719;SDS011;27405;53.316;-6.294;2022-11-20T00:15:23;25.23;;;4.88;;
41719;SDS011;27405;53.316;-6.294;2022-11-20T00:17:49;24.27;;;5.05;;
41719;SDS011;27405;53.316;-6.294;2022-11-20T00:20:15;27.52;;;5.03;;
41719;SDS011;27405;53.316;-6.294;2022-11-20T00:22:41;28.10;;;5.32;;
41719;SDS011;27405;53.316;-6.294;2022-11-20T00:25:06;26.45;;;4.68;;
41719;SDS011;27405;53.316;-6.294;2022-11-20T00:27:32;29.17;;;5.32;;
41719;SDS011;27405;53.316;-6.294;2022-11-20T00:29:58;22.92;;;4.70;;
41719;SDS011;27405;53.316;-6.294;2022-11-20T00:32:23;25.42;;;4.90;;
41719;SDS011;27405;53.316;-6.294;2022-11-20T00:34:49;24.38;;;4.18;;
41719;SDS011;27405;53.316;-6.294;2022-11-20T00:37:14;25.58;;;4.68;;
41719;SDS011;27405;53.316;-6.294;2022-11-20T00:39:40;27.35;;;6.45;;
41719;SDS011;27405;53.316;-6.294;2022-11-20T00:42:06;30.30;;;5.30;;
41719;SDS011;27405;53.316;-6.294;2022-11-20T00:44:31;31.08;;;5.20;;
41719;SDS011;27405;53.316;-6.294;2022-11-20T00:46:57;27.25;;;4.65;;
41719;SDS011;27405;53.316;-6.294;2022-11-20T00:49:23;32.08;;;5.20;;
41719;SDS011;27405;53.316;-6.294;2022-11-20T00:51:48;32.15;;;5.72;;
41719;SDS011;27405;53.316;-6.294;2022-11-20T00:54:14;34.53;;;6.20;;
41719;SDS011;27405;53.316;-6.294;2022-11-20T00:56:40;35.28;;;6.13;;
41719;SDS011;27405;53.316;-6.294;2022-11-20T00:59:05;28.90;;;4.88;;
41719;SDS011;27405;53.316;-6.294;2022-11-20T01:01:31;31.52;;;5.30;;
41719;SDS011;27405;53.316;-6.294;2022-11-20T01:03:58;34.03;;;5.70;;
41719;SDS011;27405;53.316;-6.294;2022-11-20T01:06:32;29.48;;;6.05;;
41719;SDS011;27405;53.316;-6.294;2022-11-20T01:09:00;34.65;;;6.10;;
41719;SDS011;27405;53.316;-6.294;2022-11-20T01:13:55;33.13;;;5.80;;
41719;SDS011;27405;53.316;-6.294;2022-11-20T01:18:48;31.90;;;6.40;;
41719;SDS011;27405;53.316;-6.294;2022-11-20T01:21:19;27.02;;;6.18;;
41719;SDS011;27405;53.316;-6.294;2022-11-20T01:23:47;32.10;;;6.65;;
41719;SDS011;27405;53.316;-6.294;2022-11-20T01:26:18;27.52;;;6.00;;
41719;SDS011;27405;53.316;-6.294;2022-11-20T01:28:45;28.52;;;5.50;;
41719;SDS011;27405;53.316;-6.294;2022-11-20T01:31:16;27.08;;;6.38;;
41719;SDS011;27405;53.316;-6.294;2022-11-20T01:33:44;30.20;;;5.43;;
41719;SDS011;27405;53.316;-6.294;2022-11-20T01:36:11;30.60;;;5.90;;
41719;SDS011;27405;53.316;-6.294;2022-11-20T01:38:37;31.35;;;6.38;;
41719;SDS011;27405;53.316;-6.294;2022-11-20T01:41:04;29.85;;;5.55;;
41719;SDS011;27405;53.316;-6.294;2022-11-20T01:43:30;35.38;;;5.32;;
41719;SDS011;27405;53.316;-6.294;2022-11-20T01:48:40;33.08;;;5.03;;
41719;SDS011;27405;53.316;-6.294;2022-11-20T01:54:07;30.55;;;4.80;;
41719;SDS011;27405;53.316;-6.294;2022-11-20T01:56:37;34.85;;;5.90;;
41719;SDS011;27405;53.316;-6.294;2022-11-20T01:59:06;35.63;;;6.10;;
41719;SDS011;27405;53.316;-6.294;2022-11-20T02:01:33;37.40;;;5.90;;
41719;SDS011;27405;53.316;-6.294;2022-11-20T02:03:59;33.80;;;6.47;;
41719;SDS011;27405;53.316;-6.294;2022-11-20T02:06:27;38.40;;;6.13;;
41719;SDS011;27405;53.316;-6.294;2022-11-20T02:08:56;31.77;;;6.05;;
41719;SDS011;27405;53.316;-6.294;2022-11-20T02:11:22;32.58;;;6.18;;
41719;SDS011;27405;53.316;-6.294;2022-11-20T02:13:48;39.58;;;7.15;;
41719;SDS011;27405;53.316;-6.294;2022-11-20T02:18:50;43.38;;;6.97;;
41719;SDS011;27405;53.316;-6.294;2022-11-20T02:21:26;43.13;;;6.63;;
41719;SDS011;27405;53.316;-6.294;2022-11-20T02:26:59;37.45;;;6.30;;
41719;SDS011;27405;53.316;-6.294;2022-11-20T02:29:44;41.30;;;6.35;;
41719;SDS011;27405;53.316;-6.294;2022-11-20T02:32:26;34.13;;;6.25;;
41719;SDS011;27405;53.316;-6.294;2022-11-20T02:34:52;44.20;;;6.40;;
41719;SDS011;27405;53.316;-6.294;2022-11-20T02:37:19;37.08;;;5.47;;
41719;SDS011;27405;53.316;-6.294;2022-11-20T02:39:46;32.40;;;5.97;;
41719;SDS011;27405;53.316;-6.294;2022-11-20T02:42:13;32.20;;;5.35;;
41719;SDS011;27405;53.316;-6.294;2022-11-20T02:44:39;29.73;;;4.68;;
41719;SDS011;27405;53.316;-6.294;2022-11-20T02:47:05;25.10;;;5.13;;
41719;SDS011;27405;53.316;-6.294;2022-11-20T02:49:31;31.13;;;4.78;;
41719;SDS011;27405;53.316;-6.294;2022-11-20T02:51:57;33.63;;;5.53;;
41719;SDS011;27405;53.316;-6.294;2022-11-20T02:54:23;27.90;;;4.90;;
41719;SDS011;27405;53.316;-6.294;2022-11-20T02:56:49;29.10;;;5.47;;
41719;SDS011;27405;53.316;-6.294;2022-11-20T02:59:14;27.45;;;4.78;;
41719;SDS011;27405;53.316;-6.294;2022-11-20T03:01:40;27.75;;;4.10;;
41719;SDS011;27405;53.316;-6.294;2022-11-20T03:04:06;24.85;;;4.05;;
41719;SDS011;27405;53.316;-6.294;2022-11-20T03:06:31;19.88;;;3.75;;
41719;SDS011;27405;53.316;-6.294;2022-11-20T03:08:57;24.88;;;3.80;;
41719;SDS011;27405;53.316;-6.294;2022-11-20T03:11:23;23.80;;;4.22;;
41719;SDS011;27405;53.316;-6.294;2022-11-20T03:13:48;22.08;;;4.00;;
41719;SDS011;27405;53.316;-6.294;2022-11-20T03:16:18;19.13;;;3.25;;
41719;SDS011;27405;53.316;-6.294;2022-11-20T03:18:45;16.27;;;3.25;;
41719;SDS011;27405;53.316;-6.294;2022-11-20T03:21:12;21.08;;;3.35;;
41719;SDS011;27405;53.316;-6.294;2022-11-20T03:23:38;17.13;;;2.72;;
41719;SDS011;27405;53.316;-6.294;2022-11-20T03:26:23;17.05;;;3.03;;
41719;SDS011;27405;53.316;-6.294;2022-11-20T03:28:59;15.88;;;2.90;;
41719;SDS011;27405;53.316;-6.294;2022-11-20T03:31:30;18.90;;;3.15;;
41719;SDS011;27405;53.316;-6.294;2022-11-20T03:33:58;15.73;;;2.95;;
41719;SDS011;27405;53.316;-6.294;2022-11-20T03:36:26;19.27;;;3.67;;
41719;SDS011;27405;53.316;-6.294;2022-11-20T03:38:55;21.88;;;3.67;;
41719;SDS011;27405;53.316;-6.294;2022-11-20T03:41:22;25.77;;;4.00;;
41719;SDS011;27405;53.316;-6.294;2022-11-20T03:43:53;22.52;;;3.65;;
41719;SDS011;27405;53.316;-6.294;2022-11-20T03:46:20;20.40;;;3.38;;
41719;SDS011;27405;53.316;-6.294;2022-11-20T03:48:46;25.48;;;4.07;;
41719;SDS011;27405;53.316;-6.294;2022-11-20T03:51:14;22.23;;;3.72;;
41719;SDS011;27405;53.316;-6.294;2022-11-20T03:53:44;23.02;;;3.95;;
41719;SDS011;27405;53.316;-6.294;2022-11-20T03:56:11;17.60;;;3.58;;
41719;SDS011;27405;53.316;-6.294;2022-11-20T03:58:39;23.60;;;4.03;;
41719;SDS011;27405;53.316;-6.294;2022-11-20T04:01:10;21.98;;;3.35;;
41719;SDS011;27405;53.316;-6.294;2022-11-20T04:03:37;21.90;;;3.80;;
41719;SDS011;27405;53.316;-6.294;2022-11-20T04:06:08;16.95;;;3.63;;
41719;SDS011;27405;53.316;-6.294;2022-11-20T04:08:36;27.92;;;4.07;;
41719;SDS011;27405;53.316;-6.294;2022-11-20T04:13:35;24.23;;;3.42;;
41719;SDS011;27405;53.316;-6.294;2022-11-20T04:16:01;22.92;;;3.85;;
41719;SDS011;27405;53.316;-6.294;2022-11-20T04:18:26;21.85;;;4.15;;
41719;SDS011;27405;53.316;-6.294;2022-11-20T04:20:52;18.50;;;4.28;;
41719;SDS011;27405;53.316;-6.294;2022-11-20T04:23:18;27.23;;;4.07;;
41719;SDS011;27405;53.316;-6.294;2022-11-20T04:25:43;21.58;;;3.55;;
41719;SDS011;27405;53.316;-6.294;2022-11-20T04:28:09;20.48;;;3.50;;
41719;SDS011;27405;53.316;-6.294;2022-11-20T04:30:34;23.10;;;3.90;;
41719;SDS011;27405;53.316;-6.294;2022-11-20T04:33:00;21.25;;;3.47;;
41719;SDS011;27405;53.316;-6.294;2022-11-20T04:35:26;20.63;;;4.00;;
41719;SDS011;27405;53.316;-6.294;2022-11-20T04:37:51;26.67;;;4.30;;
41719;SDS011;27405;53.316;-6.294;2022-11-20T04:40:17;24.40;;;4.30;;
41719;SDS011;27405;53.316;-6.294;2022-11-20T04:42:43;30.02;;;5.35;;
41719;SDS011;27405;53.316;-6.294;2022-11-20T04:45:08;32.55;;;5.50;;
41719;SDS011;27405;53.316;-6.294;2022-11-20T04:47:34;27.42;;;4.88;;
41719;SDS011;27405;53.316;-6.294;2022-11-20T04:50:00;25.75;;;4.45;;
41719;SDS011;27405;53.316;-6.294;2022-11-20T04:52:25;26.27;;;4.68;;
41719;SDS011;27405;53.316;-6.294;2022-11-20T04:54:51;29.15;;;4.50;;
41719;SDS011;27405;53.316;-6.294;2022-11-20T04:57:19;27.17;;;4.78;;
41719;SDS011;27405;53.316;-6.294;2022-11-20T04:59:45;23.60;;;4.35;;
41719;SDS011;27405;53.316;-6.294;2022-11-20T05:02:11;28.70;;;5.05;;
41719;SDS011;27405;53.316;-6.294;2022-11-20T05:04:36;31.73;;;4.78;;
41719;SDS011;27405;53.316;-6.294;2022-11-20T05:07:02;29.42;;;4.68;;
41719;SDS011;27405;53.316;-6.294;2022-11-20T05:09:28;29.42;;;5.13;;
41719;SDS011;27405;53.316;-6.294;2022-11-20T05:11:55;25.50;;;4.05;;
41719;SDS011;27405;53.316;-6.294;2022-11-20T05:14:20;22.08;;;3.88;;
41719;SDS011;27405;53.316;-6.294;2022-11-20T05:16:46;31.92;;;4.35;;
41719;SDS011;27405;53.316;-6.294;2022-11-20T05:19:12;23.25;;;4.03;;
41719;SDS011;27405;53.316;-6.294;2022-11-20T05:21:37;27.02;;;4.45;;
41719;SDS011;27405;53.316;-6.294;2022-11-20T05:24:03;26.38;;;4.22;;
41719;SDS011;27405;53.316;-6.294;2022-11-20T05:26:29;29.83;;;5.43;;
41719;SDS011;27405;53.316;-6.294;2022-11-20T05:28:55;27.45;;;4.95;;
41719;SDS011;27405;53.316;-6.294;2022-11-20T05:31:22;24.38;;;4.10;;
41719;SDS011;27405;53.316;-6.294;2022-11-20T05:33:49;29.23;;;4.45;;
41719;SDS011;27405;53.316;-6.294;2022-11-20T05:36:14;27.30;;;4.00;;
41719;SDS011;27405;53.316;-6.294;2022-11-20T05:38:41;20.08;;;3.70;;
41719;SDS011;27405;53.316;-6.294;2022-11-20T05:41:11;34.60;;;4.43;;
41719;SDS011;27405;53.316;-6.294;2022-11-20T05:43:38;24.17;;;3.53;;
41719;SDS011;27405;53.316;-6.294;2022-11-20T05:46:06;21.38;;;3.83;;
41719;SDS011;27405;53.316;-6.294;2022-11-20T05:48:33;25.70;;;3.58;;
41719;SDS011;27405;53.316;-6.294;2022-11-20T05:51:00;22.02;;;4.15;;
41719;SDS011;27405;53.316;-6.294;2022-11-20T05:53:27;25.63;;;3.60;;
41719;SDS011;27405;53.316;-6.294;2022-11-20T05:56:03;25.25;;;4.13;;
41719;SDS011;27405;53.316;-6.294;2022-11-20T05:58:31;22.07;;;3.47;;
41719;SDS011;27405;53.316;-6.294;2022-11-20T06:01:30;20.05;;;3.55;;
41719;SDS011;27405;53.316;-6.294;2022-11-20T06:03:50;23.55;;;3.65;;
41719;SDS011;27405;53.316;-6.294;2022-11-20T06:06:17;24.08;;;3.35;;
41719;SDS011;27405;53.316;-6.294;2022-11-20T06:08:44;28.00;;;3.30;;
41719;SDS011;27405;53.316;-6.294;2022-11-20T06:11:11;20.90;;;3.78;;
41719;SDS011;27405;53.316;-6.294;2022-11-20T06:13:38;23.20;;;3.88;;
41719;SDS011;27405;53.316;-6.294;2022-11-20T06:16:04;22.73;;;3.60;;
41719;SDS011;27405;53.316;-6.294;2022-11-20T06:18:30;20.45;;;2.75;;
41719;SDS011;27405;53.316;-6.294;2022-11-20T06:20:59;19.27;;;3.17;;
41719;SDS011;27405;53.316;-6.294;2022-11-20T06:23:27;17.90;;;2.80;;
41719;SDS011;27405;53.316;-6.294;2022-11-20T06:25:58;17.85;;;2.90;;
41719;SDS011;27405;53.316;-6.294;2022-11-20T06:28:27;20.20;;;3.22;;
41719;SDS011;27405;53.316;-6.294;2022-11-20T06:30:53;19.60;;;3.45;;
41719;SDS011;27405;53.316;-6.294;2022-11-20T06:33:18;15.40;;;3.00;;
41719;SDS011;27405;53.316;-6.294;2022-11-20T06:35:44;21.48;;;3.95;;
41719;SDS011;27405;53.316;-6.294;2022-11-20T06:38:10;16.52;;;2.78;;
41719;SDS011;27405;53.316;-6.294;2022-11-20T06:40:35;26.20;;;3.83;;
41719;SDS011;27405;53.316;-6.294;2022-11-20T06:43:04;21.15;;;3.92;;
41719;SDS011;27405;53.316;-6.294;2022-11-20T06:45:30;18.63;;;3.15;;
41719;SDS011;27405;53.316;-6.294;2022-11-20T06:47:56;20.88;;;3.42;;
41719;SDS011;27405;53.316;-6.294;2022-11-20T06:50:23;22.70;;;3.63;;
41719;SDS011;27405;53.316;-6.294;2022-11-20T06:52:49;24.65;;;3.25;;
41719;SDS011;27405;53.316;-6.294;2022-11-20T06:55:14;24.00;;;3.42;;
41719;SDS011;27405;53.316;-6.294;2022-11-20T06:57:40;16.42;;;3.35;;
41719;SDS011;27405;53.316;-6.294;2022-11-20T07:00:06;25.58;;;3.20;;
41719;SDS011;27405;53.316;-6.294;2022-11-20T07:02:32;21.38;;;3.35;;
41719;SDS011;27405;53.316;-6.294;2022-11-20T07:04:57;20.23;;;3.25;;
41719;SDS011;27405;53.316;-6.294;2022-11-20T07:07:23;24.60;;;3.33;;
41719;SDS011;27405;53.316;-6.294;2022-11-20T07:09:49;18.00;;;2.75;;
41719;SDS011;27405;53.316;-6.294;2022-11-20T07:12:14;19.27;;;3.25;;
41719;SDS011;27405;53.316;-6.294;2022-11-20T07:14:40;19.73;;;3.97;;
41719;SDS011;27405;53.316;-6.294;2022-11-20T07:17:06;23.38;;;3.80;;
41719;SDS011;27405;53.316;-6.294;2022-11-20T07:19:32;22.10;;;3.65;;
41719;SDS011;27405;53.316;-6.294;2022-11-20T07:21:57;19.15;;;4.05;;
41719;SDS011;27405;53.316;-6.294;2022-11-20T07:24:23;19.95;;;3.17;;
41719;SDS011;27405;53.316;-6.294;2022-11-20T07:26:49;24.63;;;4.05;;
41719;SDS011;27405;53.316;-6.294;2022-11-20T07:29:15;22.65;;;3.63;;
41719;SDS011;27405;53.316;-6.294;2022-11-20T07:31:41;21.58;;;3.50;;
41719;SDS011;27405;53.316;-6.294;2022-11-20T07:34:07;22.92;;;3.65;;
41719;SDS011;27405;53.316;-6.294;2022-11-20T07:36:33;24.00;;;3.92;;
41719;SDS011;27405;53.316;-6.294;2022-11-20T07:38:59;19.70;;;3.03;;
41719;SDS011;27405;53.316;-6.294;2022-11-20T07:41:24;22.88;;;3.90;;
41719;SDS011;27405;53.316;-6.294;2022-11-20T07:43:50;23.25;;;3.33;;
41719;SDS011;27405;53.316;-6.294;2022-11-20T07:46:16;27.10;;;3.60;;
41719;SDS011;27405;53.316;-6.294;2022-11-20T07:48:41;22.60;;;3.80;;
41719;SDS011;27405;53.316;-6.294;2022-11-20T07:51:07;20.58;;;3.50;;
41719;SDS011;27405;53.316;-6.294;2022-11-20T07:53:33;29.48;;;3.97;;
41719;SDS011;27405;53.316;-6.294;2022-11-20T07:55:59;22.67;;;3.42;;
41719;SDS011;27405;53.316;-6.294;2022-11-20T07:58:26;25.20;;;3.97;;
41719;SDS011;27405;53.316;-6.294;2022-11-20T08:00:54;25.30;;;4.20;;
41719;SDS011;27405;53.316;-6.294;2022-11-20T08:03:20;26.80;;;4.13;;
41719;SDS011;27405;53.316;-6.294;2022-11-20T08:05:45;17.88;;;3.78;;
41719;SDS011;27405;53.316;-6.294;2022-11-20T08:08:11;21.42;;;3.83;;
41719;SDS011;27405;53.316;-6.294;2022-11-20T08:10:36;26.63;;;4.30;;
41719;SDS011;27405;53.316;-6.294;2022-11-20T08:13:02;27.80;;;4.00;;
41719;SDS011;27405;53.316;-6.294;2022-11-20T08:15:50;30.70;;;4.28;;
41719;SDS011;27405;53.316;-6.294;2022-11-20T08:18:16;22.58;;;3.47;;
41719;SDS011;27405;53.316;-6.294;2022-11-20T08:20:42;20.65;;;3.72;;
41719;SDS011;27405;53.316;-6.294;2022-11-20T08:23:08;26.58;;;3.85;;
41719;SDS011;27405;53.316;-6.294;2022-11-20T08:25:35;29.77;;;4.43;;
41719;SDS011;27405;53.316;-6.294;2022-11-20T08:28:05;24.10;;;3.97;;
41719;SDS011;27405;53.316;-6.294;2022-11-20T08:30:32;27.13;;;3.97;;
41719;SDS011;27405;53.316;-6.294;2022-11-20T08:33:02;24.17;;;3.95;;
41719;SDS011;27405;53.316;-6.294;2022-11-20T08:35:33;24.67;;;4.00;;
41719;SDS011;27405;53.316;-6.294;2022-11-20T08:38:06;24.30;;;3.55;;
41719;SDS011;27405;53.316;-6.294;2022-11-20T08:40:32;22.90;;;4.00;;
41719;SDS011;27405;53.316;-6.294;2022-11-20T08:42:58;23.90;;;4.18;;
41719;SDS011;27405;53.316;-6.294;2022-11-20T08:45:24;22.33;;;3.50;;
41719;SDS011;27405;53.316;-6.294;2022-11-20T08:47:49;23.95;;;4.50;;
41719;SDS011;27405;53.316;-6.294;2022-11-20T08:50:15;21.58;;;3.35;;
41719;SDS011;27405;53.316;-6.294;2022-11-20T08:52:42;21.67;;;3.40;;
41719;SDS011;27405;53.316;-6.294;2022-11-20T08:55:07;27.00;;;3.50;;
41719;SDS011;27405;53.316;-6.294;2022-11-20T08:57:34;17.85;;;3.20;;
41719;SDS011;27405;53.316;-6.294;2022-11-20T09:00:02;23.55;;;2.92;;
41719;SDS011;27405;53.316;-6.294;2022-11-20T09:02:29;24.55;;;3.30;;
41719;SDS011;27405;53.316;-6.294;2022-11-20T09:04:55;20.13;;;3.38;;
41719;SDS011;27405;53.316;-6.294;2022-11-20T09:07:20;20.98;;;3.70;;
41719;SDS011;27405;53.316;-6.294;2022-11-20T09:09:46;17.88;;;2.60;;
41719;SDS011;27405;53.316;-6.294;2022-11-20T09:12:12;18.33;;;3.42;;
41719;SDS011;27405;53.316;-6.294;2022-11-20T09:14:38;16.70;;;3.00;;
41719;SDS011;27405;53.316;-6.294;2022-11-20T09:17:04;17.23;;;2.90;;
41719;SDS011;27405;53.316;-6.294;2022-11-20T09:19:29;21.40;;;3.08;;
41719;SDS011;27405;53.316;-6.294;2022-11-20T09:21:55;19.02;;;3.05;;
41719;SDS011;27405;53.316;-6.294;2022-11-20T09:24:21;15.18;;;2.67;;
41719;SDS011;27405;53.316;-6.294;2022-11-20T09:26:46;14.68;;;2.65;;
41719;SDS011;27405;53.316;-6.294;2022-11-20T09:29:12;13.82;;;2.60;;
41719;SDS011;27405;53.316;-6.294;2022-11-20T09:31:38;14.75;;;2.75;;
41719;SDS011;27405;53.316;-6.294;2022-11-20T09:34:03;14.35;;;2.65;;
41719;SDS011;27405;53.316;-6.294;2022-11-20T09:36:29;16.05;;;2.47;;
41719;SDS011;27405;53.316;-6.294;2022-11-20T09:38:55;15.00;;;2.60;;
41719;SDS011;27405;53.316;-6.294;2022-11-20T09:46:48;12.65;;;2.45;;
41719;SDS011;27405;53.316;-6.294;2022-11-20T09:54:45;15.40;;;2.42;;
41719;SDS011;27405;53.316;-6.294;2022-11-20T09:57:12;16.40;;;2.63;;
41719;SDS011;27405;53.316;-6.294;2022-11-20T09:59:42;17.42;;;2.78;;
41719;SDS011;27405;53.316;-6.294;2022-11-20T10:04:57;12.03;;;2.53;;
41719;SDS011;27405;53.316;-6.294;2022-11-20T10:07:30;20.45;;;2.92;;
41719;SDS011;27405;53.316;-6.294;2022-11-20T10:10:20;16.27;;;2.40;;
41719;SDS011;27405;53.316;-6.294;2022-11-20T10:15:57;10.82;;;2.67;;
41719;SDS011;27405;53.316;-6.294;2022-11-20T10:18:48;13.45;;;2.45;;
41719;SDS011;27405;53.316;-6.294;2022-11-20T10:30:15;11.48;;;2.50;;
41719;SDS011;27405;53.316;-6.294;2022-11-20T10:32:43;7.53;;;1.60;;
41719;SDS011;27405;53.316;-6.294;2022-11-20T10:35:19;7.65;;;2.17;;
41719;SDS011;27405;53.316;-6.294;2022-11-20T10:37:54;10.35;;;2.80;;
41719;SDS011;27405;53.316;-6.294;2022-11-20T10:40:25;13.85;;;3.10;;
41719;SDS011;27405;53.316;-6.294;2022-11-20T10:42:56;8.30;;;2.47;;
41719;SDS011;27405;53.316;-6.294;2022-11-20T10:48:33;11.82;;;2.70;;
41719;SDS011;27405;53.316;-6.294;2022-11-20T10:56:15;8.93;;;2.13;;
41719;SDS011;27405;53.316;-6.294;2022-11-20T11:03:44;4.43;;;1.48;;
41719;SDS011;27405;53.316;-6.294;2022-11-20T11:06:19;6.00;;;1.42;;
41719;SDS011;27405;53.316;-6.294;2022-11-20T11:08:58;4.72;;;1.10;;
41719;SDS011;27405;53.316;-6.294;2022-11-20T11:11:32;5.70;;;1.30;;
41719;SDS011;27405;53.316;-6.294;2022-11-20T11:14:05;5.00;;;0.93;;
41719;SDS011;27405;53.316;-6.294;2022-11-20T11:16:32;1.38;;;0.70;;
41719;SDS011;27405;53.316;-6.294;2022-11-20T11:19:31;3.60;;;0.90;;
41719;SDS011;27405;53.316;-6.294;2022-11-20T11:21:56;3.20;;;0.60;;
41719;SDS011;27405;53.316;-6.294;2022-11-20T11:27:10;3.60;;;1.10;;
41719;SDS011;27405;53.316;-6.294;2022-11-20T11:29:37;3.10;;;0.90;;
41719;SDS011;27405;53.316;-6.294;2022-11-20T11:32:07;2.55;;;0.73;;
41719;SDS011;27405;53.316;-6.294;2022-11-20T11:34:33;1.27;;;0.65;;
41719;SDS011;27405;53.316;-6.294;2022-11-20T11:36:59;2.72;;;0.75;;
41719;SDS011;27405;53.316;-6.294;2022-11-20T11:39:28;2.67;;;0.80;;
41719;SDS011;27405;53.316;-6.294;2022-11-20T11:41:55;3.38;;;1.00;;
41719;SDS011;27405;53.316;-6.294;2022-11-20T11:58:11;2.10;;;1.02;;
41719;SDS011;27405;53.316;-6.294;2022-11-20T12:00:47;3.22;;;0.90;;
41719;SDS011;27405;53.316;-6.294;2022-11-20T12:03:34;3.25;;;1.02;;
41719;SDS011;27405;53.316;-6.294;2022-11-20T12:08:46;6.32;;;1.42;;
41719;SDS011;27405;53.316;-6.294;2022-11-20T12:11:37;3.08;;;1.00;;
41719;SDS011;27405;53.316;-6.294;2022-11-20T12:14:17;5.88;;;1.40;;
41719;SDS011;27405;53.316;-6.294;2022-11-20T12:17:04;7.07;;;1.00;;
41719;SDS011;27405;53.316;-6.294;2022-11-20T12:19:31;4.53;;;1.33;;
41719;SDS011;27405;53.316;-6.294;2022-11-20T12:22:02;4.00;;;0.95;;
41719;SDS011;27405;53.316;-6.294;2022-11-20T12:30:16;4.95;;;0.90;;
41719;SDS011;27405;53.316;-6.294;2022-11-20T12:36:06;5.93;;;1.13;;
41719;SDS011;27405;53.316;-6.294;2022-11-20T12:39:05;6.55;;;1.10;;
41719;SDS011;27405;53.316;-6.294;2022-11-20T12:42:01;4.47;;;1.13;;
41719;SDS011;27405;53.316;-6.294;2022-11-20T13:02:01;3.55;;;1.05;;
41719;SDS011;27405;53.316;-6.294;2022-11-20T13:07:38;8.27;;;1.40;;
41719;SDS011;27405;53.316;-6.294;2022-11-20T13:10:11;4.15;;;1.40;;
41719;SDS011;27405;53.316;-6.294;2022-11-20T13:12:47;10.45;;;1.60;;
41719;SDS011;27405;53.316;-6.294;2022-11-20T13:16:01;7.82;;;2.65;;
41719;SDS011;27405;53.316;-6.294;2022-11-20T13:18:38;9.02;;;2.08;;
41719;SDS011;27405;53.316;-6.294;2022-11-20T13:21:41;9.18;;;2.13;;
41719;SDS011;27405;53.316;-6.294;2022-11-20T13:24:49;6.40;;;1.70;;
41719;SDS011;27405;53.316;-6.294;2022-11-20T13:27:26;8.30;;;2.05;;
41719;SDS011;27405;53.316;-6.294;2022-11-20T13:30:01;12.88;;;1.70;;
41719;SDS011;27405;53.316;-6.294;2022-11-20T13:32:47;7.70;;;1.73;;
41719;SDS011;27405;53.316;-6.294;2022-11-20T13:38:04;6.80;;;1.52;;
41719;SDS011;27405;53.316;-6.294;2022-11-20T13:40:54;7.95;;;1.95;;
41719;SDS011;27405;53.316;-6.294;2022-11-20T13:45:55;8.73;;;2.40;;
41719;SDS011;27405;53.316;-6.294;2022-11-20T13:48:30;7.50;;;2.20;;
41719;SDS011;27405;53.316;-6.294;2022-11-20T13:56:19;6.90;;;1.60;;
41719;SDS011;27405;53.316;-6.294;2022-11-20T14:01:40;10.52;;;1.95;;
41719;SDS011;27405;53.316;-6.294;2022-11-20T14:04:13;10.15;;;1.80;;
41719;SDS011;27405;53.316;-6.294;2022-11-20T14:06:43;7.00;;;1.65;;
41719;SDS011;27405;53.316;-6.294;2022-11-20T14:09:12;12.40;;;1.98;;
41719;SDS011;27405;53.316;-6.294;2022-11-20T14:11:50;11.55;;;2.15;;
41719;SDS011;27405;53.316;-6.294;2022-11-20T14:14:17;8.35;;;1.88;;
41719;SDS011;27405;53.316;-6.294;2022-11-20T14:16:44;9.65;;;1.63;;
41719;SDS011;27405;53.316;-6.294;2022-11-20T14:21:48;11.35;;;1.90;;
41719;SDS011;27405;53.316;-6.294;2022-11-20T14:24:18;7.65;;;2.13;;
41719;SDS011;27405;53.316;-6.294;2022-11-20T14:26:46;10.05;;;2.30;;
41719;SDS011;27405;53.316;-6.294;2022-11-20T14:29:27;8.32;;;2.33;;
41719;SDS011;27405;53.316;-6.294;2022-11-20T14:31:55;10.40;;;2.05;;
41719;SDS011;27405;53.316;-6.294;2022-11-20T14:34:23;8.23;;;2.40;;
41719;SDS011;27405;53.316;-6.294;2022-11-20T14:36:54;8.98;;;2.40;;
41719;SDS011;27405;53.316;-6.294;2022-11-20T14:39:25;12.13;;;2.95;;
41719;SDS011;27405;53.316;-6.294;2022-11-20T14:41:58;8.63;;;1.85;;
41719;SDS011;27405;53.316;-6.294;2022-11-20T14:44:26;12.45;;;3.22;;
41719;SDS011;27405;53.316;-6.294;2022-11-20T14:46:56;11.35;;;1.98;;
41719;SDS011;27405;53.316;-6.294;2022-11-20T14:49:25;17.13;;;4.47;;
41719;SDS011;27405;53.316;-6.294;2022-11-20T14:52:10;16.45;;;4.45;;
41719;SDS011;27405;53.316;-6.294;2022-11-20T14:59:47;18.83;;;5.18;;
41719;SDS011;27405;53.316;-6.294;2022-11-20T15:02:12;17.58;;;3.30;;
41719;SDS011;27405;53.316;-6.294;2022-11-20T15:04:56;14.35;;;2.83;;
41719;SDS011;27405;53.316;-6.294;2022-11-20T15:07:37;11.63;;;2.55;;
41719;SDS011;27405;53.316;-6.294;2022-11-20T15:10:23;13.73;;;3.38;;
41719;SDS011;27405;53.316;-6.294;2022-11-20T15:12:51;11.25;;;2.60;;
41719;SDS011;27405;53.316;-6.294;2022-11-20T15:15:21;10.88;;;2.47;;
41719;SDS011;27405;53.316;-6.294;2022-11-20T15:17:52;11.30;;;2.58;;
41719;SDS011;27405;53.316;-6.294;2022-11-20T15:20:18;11.48;;;3.10;;
41719;SDS011;27405;53.316;-6.294;2022-11-20T15:22:44;11.60;;;2.30;;
41719;SDS011;27405;53.316;-6.294;2022-11-20T15:25:16;14.95;;;2.97;;
41719;SDS011;27405;53.316;-6.294;2022-11-20T15:27:43;11.27;;;2.80;;
41719;SDS011;27405;53.316;-6.294;2022-11-20T15:30:17;11.73;;;2.67;;
41719;SDS011;27405;53.316;-6.294;2022-11-20T15:32:44;12.40;;;2.88;;
41719;SDS011;27405;53.316;-6.294;2022-11-20T15:35:11;11.60;;;2.83;;
41719;SDS011;27405;53.316;-6.294;2022-11-20T15:37:38;12.27;;;2.95;;
41719;SDS011;27405;53.316;-6.294;2022-11-20T15:40:04;12.40;;;2.90;;
41719;SDS011;27405;53.316;-6.294;2022-11-20T15:42:31;11.45;;;2.75;;
41719;SDS011;27405;53.316;-6.294;2022-11-20T15:44:57;12.93;;;3.17;;
41719;SDS011;27405;53.316;-6.294;2022-11-20T15:47:25;9.57;;;2.88;;
41719;SDS011;27405;53.316;-6.294;2022-11-20T15:49:59;14.77;;;2.97;;
41719;SDS011;27405;53.316;-6.294;2022-11-20T15:52:25;8.18;;;2.40;;
41719;SDS011;27405;53.316;-6.294;2022-11-20T15:54:51;6.82;;;1.95;;
41719;SDS011;27405;53.316;-6.294;2022-11-20T15:57:16;8.05;;;2.10;;
41719;SDS011;27405;53.316;-6.294;2022-11-20T15:59:42;9.75;;;2.63;;
41719;SDS011;27405;53.316;-6.294;2022-11-20T16:02:11;13.18;;;3.38;;
41719;SDS011;27405;53.316;-6.294;2022-11-20T16:04:37;12.18;;;3.22;;
41719;SDS011;27405;53.316;-6.294;2022-11-20T16:07:03;8.02;;;2.53;;
41719;SDS011;27405;53.316;-6.294;2022-11-20T16:09:28;9.18;;;2.55;;
41719;SDS011;27405;53.316;-6.294;2022-11-20T16:11:54;10.85;;;2.40;;
41719;SDS011;27405;53.316;-6.294;2022-11-20T16:14:20;10.73;;;3.10;;
41719;SDS011;27405;53.316;-6.294;2022-11-20T16:17:04;8.77;;;2.63;;
41719;SDS011;27405;53.316;-6.294;2022-11-20T16:19:30;8.25;;;2.83;;
41719;SDS011;27405;53.316;-6.294;2022-11-20T16:21:57;13.27;;;3.42;;
41719;SDS011;27405;53.316;-6.294;2022-11-20T16:24:24;19.23;;;5.85;;
41719;SDS011;27405;53.316;-6.294;2022-11-20T16:26:49;13.88;;;3.30;;
41719;SDS011;27405;53.316;-6.294;2022-11-20T16:29:15;9.88;;;2.85;;
41719;SDS011;27405;53.316;-6.294;2022-11-20T16:31:41;10.68;;;2.90;;
41719;SDS011;27405;53.316;-6.294;2022-11-20T16:34:06;14.73;;;3.50;;
41719;SDS011;27405;53.316;-6.294;2022-11-20T16:36:32;11.68;;;3.90;;
41719;SDS011;27405;53.316;-6.294;2022-11-20T16:38:59;15.57;;;3.40;;
41719;SDS011;27405;53.316;-6.294;2022-11-20T16:41:28;14.23;;;4.50;;